createdAt,value
2023-03-13T00:00:51.725Z,8.25
2023-03-13T00:03:19.418Z,6.23
2023-03-13T00:05:48.061Z,6.72
2023-03-13T00:08:15.606Z,7.75
2023-03-13T00:10:43.549Z,6.70
2023-03-13T00:13:14.319Z,12.18
2023-03-13T00:15:43.288Z,10.53
2023-03-13T00:18:10.916Z,13.55
2023-03-13T00:20:39.033Z,8.60
2023-03-13T00:23:06.664Z,11.90
2023-03-13T00:25:34.274Z,12.35
2023-03-13T00:28:01.969Z,11.50
2023-03-13T00:30:29.492Z,13.45
2023-03-13T00:32:58.534Z,13.43
2023-03-13T00:35:26.238Z,19.03
2023-03-13T00:37:53.870Z,8.75
2023-03-13T00:40:21.442Z,11.45
2023-03-13T00:42:49.110Z,8.82
2023-03-13T00:45:16.850Z,12.63
2023-03-13T00:47:44.330Z,5.87
2023-03-13T00:50:20.249Z,5.63
2023-03-13T00:52:47.750Z,9.88
2023-03-13T00:55:15.286Z,5.72
2023-03-13T00:57:42.975Z,6.32
2023-03-13T01:00:11.131Z,5.77
2023-03-13T01:02:42.139Z,4.85
2023-03-13T01:05:10.674Z,8.82
2023-03-13T01:07:39.824Z,6.43
2023-03-13T01:10:08.446Z,6.25
2023-03-13T01:12:39.154Z,4.57
2023-03-13T01:15:07.768Z,7.30
2023-03-13T01:17:36.417Z,4.22
2023-03-13T01:20:05.560Z,7.28
2023-03-13T01:22:33.104Z,4.78
2023-03-13T01:25:02.078Z,5.80
2023-03-13T01:27:30.144Z,3.55
2023-03-13T01:29:57.677Z,4.05
2023-03-13T01:32:25.304Z,5.47
2023-03-13T01:34:52.806Z,4.13
2023-03-13T01:37:20.373Z,3.17
2023-03-13T01:39:48.041Z,6.45
2023-03-13T01:42:16.887Z,4.65
2023-03-13T01:44:56.715Z,3.55
2023-03-13T01:47:24.637Z,3.13
2023-03-13T01:49:53.564Z,4.03
2023-03-13T01:52:23.101Z,2.72
2023-03-13T01:54:52.360Z,5.40
2023-03-13T01:57:25.651Z,4.85
2023-03-13T01:59:54.658Z,3.10
2023-03-13T02:02:22.732Z,4.17
2023-03-13T02:04:53.007Z,2.42
2023-03-13T02:07:23.180Z,3.95
2023-03-13T02:09:52.325Z,3.63
2023-03-13T02:12:25.212Z,5.82
2023-03-13T02:14:53.448Z,5.07
2023-03-13T02:17:25.386Z,4.38
2023-03-13T02:19:53.522Z,3.83
2023-03-13T02:22:24.962Z,4.93
2023-03-13T02:24:54.879Z,2.85
2023-03-13T02:27:23.853Z,3.23
2023-03-13T02:29:52.389Z,4.85
2023-03-13T02:32:20.298Z,4.05
2023-03-13T02:34:49.520Z,3.67
2023-03-13T02:37:17.370Z,4.57
2023-03-13T02:39:47.369Z,3.20
2023-03-13T02:42:15.588Z,4.28
2023-03-13T02:44:46.652Z,4.82
2023-03-13T02:47:14.360Z,6.03
2023-03-13T02:49:42.402Z,6.35
2023-03-13T02:52:13.466Z,3.37
2023-03-13T02:54:41.836Z,3.70
2023-03-13T02:57:09.388Z,6.45
2023-03-13T02:59:36.874Z,3.33
2023-03-13T03:02:05.933Z,3.85
2023-03-13T03:04:33.959Z,3.70
2023-03-13T03:07:01.445Z,2.78
2023-03-13T03:09:29.055Z,4.07
2023-03-13T03:11:56.628Z,4.55
2023-03-13T03:14:24.188Z,2.65
2023-03-13T03:16:51.774Z,3.17
2023-03-13T03:19:20.767Z,5.78
2023-03-13T03:21:49.473Z,4.32
2023-03-13T03:24:17.169Z,3.10
2023-03-13T03:26:44.884Z,4.03
2023-03-13T03:29:12.541Z,4.83
2023-03-13T03:31:40.287Z,4.15
2023-03-13T03:34:08.235Z,2.95
2023-03-13T03:36:37.214Z,2.08
2023-03-13T03:39:05.327Z,5.10
2023-03-13T03:41:32.903Z,2.60
2023-03-13T03:44:00.445Z,4.53
2023-03-13T03:46:28.075Z,4.20
2023-03-13T03:48:55.737Z,3.85
2023-03-13T03:51:24.704Z,4.18
2023-03-13T03:53:54.709Z,5.27
2023-03-13T03:56:22.330Z,4.07
2023-03-13T03:58:52.322Z,7.43
2023-03-13T04:01:20.217Z,7.65
2023-03-13T04:03:48.652Z,3.53
2023-03-13T04:06:16.247Z,6.23
2023-03-13T04:08:44.167Z,8.45
2023-03-13T04:11:13.021Z,11.98
2023-03-13T04:13:40.508Z,6.00
2023-03-13T04:16:08.645Z,9.77
2023-03-13T04:18:36.318Z,6.73
2023-03-13T04:21:05.020Z,6.45
2023-03-13T04:23:32.639Z,4.95
2023-03-13T04:26:00.275Z,4.80
2023-03-13T04:28:29.165Z,5.55
2023-03-13T04:30:58.374Z,5.00
2023-03-13T04:33:26.712Z,10.55
2023-03-13T04:35:54.380Z,7.38
2023-03-13T04:38:22.072Z,6.45
2023-03-13T04:40:49.764Z,6.63
2023-03-13T04:43:17.311Z,6.23
2023-03-13T04:45:46.614Z,4.43
2023-03-13T04:48:14.593Z,6.15
2023-03-13T04:50:42.138Z,3.92
2023-03-13T04:53:10.018Z,5.65
2023-03-13T04:55:37.491Z,9.73
2023-03-13T04:58:05.045Z,6.88
2023-03-13T05:00:33.582Z,6.53
2023-03-13T05:03:02.458Z,5.75
2023-03-13T05:05:30.178Z,8.35
2023-03-13T05:07:57.950Z,5.60
2023-03-13T05:10:25.551Z,8.15
2023-03-13T05:12:54.088Z,6.43
2023-03-13T05:15:21.717Z,7.78
2023-03-13T05:17:49.214Z,7.28
2023-03-13T05:20:18.261Z,9.40
2023-03-13T05:22:49.979Z,15.70
2023-03-13T05:25:17.548Z,9.23
2023-03-13T05:27:46.459Z,10.57
2023-03-13T05:30:14.323Z,11.25
2023-03-13T05:32:41.928Z,11.07
2023-03-13T05:35:09.597Z,11.75
2023-03-13T05:37:41.182Z,11.52
2023-03-13T05:40:09.880Z,6.18
2023-03-13T05:42:38.178Z,9.73
2023-03-13T05:45:06.304Z,11.60
2023-03-13T05:47:34.107Z,16.40
2023-03-13T05:50:01.638Z,24.40
2023-03-13T05:52:29.428Z,7.88
2023-03-13T05:54:58.393Z,17.38
2023-03-13T05:57:26.486Z,15.05
2023-03-13T05:59:54.104Z,15.27
2023-03-13T06:02:21.777Z,16.48
2023-03-13T06:04:49.858Z,13.20
2023-03-13T06:07:17.535Z,14.93
2023-03-13T06:09:45.067Z,11.93
2023-03-13T06:12:14.043Z,8.63
2023-03-13T06:14:41.581Z,12.35
2023-03-13T06:17:09.107Z,13.88
2023-03-13T06:19:36.646Z,15.27
2023-03-13T06:22:04.200Z,10.20
2023-03-13T06:24:31.929Z,15.73
2023-03-13T06:26:59.559Z,12.40
2023-03-13T06:29:28.658Z,10.35
2023-03-13T06:31:56.384Z,16.77
2023-03-13T06:34:24.771Z,13.30
2023-03-13T06:36:52.329Z,14.87
2023-03-13T06:39:19.866Z,10.07
2023-03-13T06:41:47.576Z,14.32
2023-03-13T06:44:15.135Z,10.90
2023-03-13T06:46:44.239Z,18.30
2023-03-13T06:49:12.874Z,16.73
2023-03-13T06:51:40.480Z,14.63
2023-03-13T06:54:08.149Z,14.73
2023-03-13T06:56:35.749Z,20.90
2023-03-13T06:59:03.323Z,15.95
2023-03-13T07:01:31.079Z,18.37
2023-03-13T07:04:00.336Z,13.23
2023-03-13T07:06:28.045Z,13.98
2023-03-13T07:08:55.562Z,13.13
2023-03-13T07:11:23.370Z,20.63
2023-03-13T07:13:50.914Z,19.07
2023-03-13T07:16:18.481Z,12.15
2023-03-13T07:18:46.182Z,17.10
2023-03-13T07:21:15.431Z,16.70
2023-03-13T07:23:42.990Z,10.10
2023-03-13T07:26:12.098Z,18.97
2023-03-13T07:28:39.805Z,16.13
2023-03-13T07:31:08.800Z,21.13
2023-03-13T07:33:36.491Z,18.10
2023-03-13T07:36:04.415Z,15.43
2023-03-13T07:38:33.410Z,15.23
2023-03-13T07:41:01.232Z,14.50
2023-03-13T07:43:29.566Z,20.27
2023-03-13T07:45:57.888Z,16.63
2023-03-13T07:48:26.127Z,15.15
2023-03-13T07:50:56.125Z,18.27
2023-03-13T07:53:23.758Z,23.55
2023-03-13T07:55:56.486Z,15.65
2023-03-13T07:58:24.224Z,18.98
2023-03-13T08:00:51.857Z,16.67
2023-03-13T08:03:20.030Z,16.30
2023-03-13T08:05:47.689Z,19.40
2023-03-13T08:08:15.194Z,14.70
2023-03-13T08:10:42.769Z,19.83
2023-03-13T08:13:11.762Z,24.98
2023-03-13T08:15:39.395Z,18.77
2023-03-13T08:18:07.979Z,14.02
2023-03-13T08:20:35.596Z,16.20
2023-03-13T08:23:03.117Z,11.43
2023-03-13T08:25:32.069Z,19.90
2023-03-13T08:28:02.067Z,20.60
2023-03-13T08:30:31.413Z,22.85
2023-03-13T08:32:59.059Z,18.58
2023-03-13T08:35:26.658Z,17.15
2023-03-13T08:37:54.200Z,16.52
2023-03-13T08:40:22.075Z,11.47
2023-03-13T08:42:49.660Z,15.25
2023-03-13T08:45:17.301Z,13.75
2023-03-13T08:47:46.268Z,15.85
2023-03-13T08:50:13.865Z,17.50
2023-03-13T08:52:41.551Z,12.67
2023-03-13T08:55:09.527Z,11.38
2023-03-13T08:57:37.326Z,23.25
2023-03-13T09:00:07.098Z,18.23
2023-03-13T09:02:34.654Z,19.63
2023-03-13T09:05:03.716Z,18.58
2023-03-13T09:07:32.489Z,17.77
2023-03-13T09:10:00.334Z,17.23
2023-03-13T09:12:31.396Z,13.23
2023-03-13T09:15:00.153Z,12.23
2023-03-13T09:17:27.673Z,19.27
2023-03-13T09:20:00.555Z,23.02
2023-03-13T09:22:29.985Z,15.47
2023-03-13T09:25:02.456Z,16.13
2023-03-13T09:27:35.650Z,20.87
2023-03-13T09:30:03.422Z,19.45
2023-03-13T09:32:31.086Z,27.38
2023-03-13T09:34:59.743Z,26.73
2023-03-13T09:37:27.367Z,21.73
2023-03-13T09:39:57.233Z,22.00
2023-03-13T09:42:29.962Z,18.60
2023-03-13T09:45:00.925Z,24.25
2023-03-13T09:47:33.924Z,15.98
2023-03-13T09:50:04.387Z,23.70
2023-03-13T09:52:42.473Z,23.53
2023-03-13T09:55:16.570Z,12.13
2023-03-13T09:57:48.287Z,22.88
2023-03-13T10:00:20.044Z,15.38
2023-03-13T10:02:48.701Z,16.02
2023-03-13T10:05:18.802Z,23.90
2023-03-13T10:07:46.458Z,15.15
2023-03-13T10:10:18.293Z,17.67
2023-03-13T10:12:48.430Z,19.85
2023-03-13T10:15:34.870Z,24.77
2023-03-13T10:18:08.110Z,15.23
2023-03-13T10:20:36.413Z,16.77
2023-03-13T10:23:06.825Z,15.95
2023-03-13T10:25:36.194Z,18.10
2023-03-13T10:28:05.508Z,15.15
2023-03-13T10:30:35.336Z,11.10
2023-03-13T10:33:18.764Z,16.20
2023-03-13T10:35:46.856Z,23.65
2023-03-13T10:38:15.345Z,17.17
2023-03-13T10:40:43.484Z,21.83
2023-03-13T10:43:21.292Z,23.23
2023-03-13T10:45:49.984Z,16.02
2023-03-13T10:48:20.224Z,15.18
2023-03-13T10:50:48.478Z,15.80
2023-03-13T10:53:21.936Z,17.50
2023-03-13T10:55:49.804Z,17.60
2023-03-13T10:58:24.372Z,18.63
2023-03-13T11:00:52.088Z,20.08
2023-03-13T11:03:22.121Z,17.17
2023-03-13T11:05:56.082Z,23.92
2023-03-13T11:08:25.394Z,13.83
2023-03-13T11:10:57.404Z,23.67
2023-03-13T11:13:37.020Z,16.38
2023-03-13T11:16:10.683Z,17.10
2023-03-13T11:18:41.225Z,12.02
2023-03-13T11:21:18.099Z,15.23
2023-03-13T11:23:49.574Z,14.10
2023-03-13T11:26:27.130Z,16.00
2023-03-13T11:28:59.033Z,22.83
2023-03-13T11:31:29.535Z,16.30
2023-03-13T11:33:59.388Z,17.80
2023-03-13T11:36:31.801Z,14.73
2023-03-13T11:39:04.074Z,14.55
2023-03-13T11:41:40.784Z,14.65
2023-03-13T11:44:29.594Z,12.40
2023-03-13T11:47:26.456Z,16.80
2023-03-13T11:50:01.433Z,17.40
2023-03-13T11:52:35.554Z,18.85
2023-03-13T11:55:18.090Z,17.92
2023-03-13T11:57:49.914Z,13.77
2023-03-13T12:00:21.693Z,14.38
2023-03-13T12:02:53.283Z,22.83
2023-03-13T12:05:21.969Z,19.55
2023-03-13T12:07:52.108Z,19.88
2023-03-13T12:10:21.730Z,19.57
2023-03-13T12:12:52.748Z,20.98
2023-03-13T12:15:24.577Z,14.82
2023-03-13T12:17:57.374Z,17.92
2023-03-13T12:20:26.570Z,21.60
2023-03-13T12:22:58.116Z,15.87
2023-03-13T12:25:28.754Z,16.58
2023-03-13T12:27:58.613Z,20.42
2023-03-13T12:30:34.857Z,14.83
2023-03-13T12:33:11.507Z,24.90
2023-03-13T12:35:44.924Z,13.35
2023-03-13T12:38:15.508Z,13.43
2023-03-13T12:40:48.510Z,20.10
2023-03-13T12:43:19.226Z,23.08
2023-03-13T12:45:53.014Z,15.57
2023-03-13T12:48:44.575Z,18.02
2023-03-13T12:51:21.920Z,13.83
2023-03-13T12:54:04.652Z,20.60
2023-03-13T12:56:40.322Z,17.15
2023-03-13T12:59:10.396Z,15.98
2023-03-13T13:01:40.915Z,16.73
2023-03-13T13:04:12.634Z,19.20
2023-03-13T13:07:02.393Z,18.40
2023-03-13T13:09:32.756Z,14.23
2023-03-13T13:12:01.880Z,19.10
2023-03-13T13:14:57.761Z,20.30
2023-03-13T13:17:34.398Z,15.87
2023-03-13T13:20:16.964Z,25.90
2023-03-13T13:22:49.313Z,19.02
2023-03-13T13:25:30.075Z,14.57
2023-03-13T13:27:59.094Z,21.58
2023-03-13T13:30:31.724Z,12.70
2023-03-13T13:33:28.303Z,13.32
2023-03-13T13:36:11.063Z,17.65
2023-03-13T13:38:40.231Z,16.13
2023-03-13T13:41:28.455Z,16.13
2023-03-13T13:44:14.845Z,18.67
2023-03-13T13:46:47.759Z,17.13
2023-03-13T13:49:17.553Z,19.85
2023-03-13T13:52:10.583Z,17.10
2023-03-13T13:54:58.220Z,19.45
2023-03-13T13:57:28.936Z,13.47
2023-03-13T14:00:00.454Z,13.20
2023-03-13T14:02:31.922Z,13.88
2023-03-13T14:05:19.541Z,13.05
2023-03-13T14:07:53.142Z,12.55
2023-03-13T14:10:41.728Z,9.20
2023-03-13T14:13:15.264Z,15.35
2023-03-13T14:15:43.563Z,16.85
2023-03-13T14:18:13.304Z,13.50
2023-03-13T14:20:41.480Z,15.90
2023-03-13T14:23:10.266Z,13.80
2023-03-13T14:25:42.799Z,13.60
2023-03-13T14:28:18.769Z,16.58
2023-03-13T14:30:46.850Z,16.85
2023-03-13T14:33:14.869Z,17.40
2023-03-13T14:35:42.815Z,10.05
2023-03-13T14:38:22.463Z,14.13
2023-03-13T14:40:50.421Z,17.77
2023-03-13T14:43:25.236Z,15.00
2023-03-13T14:45:53.142Z,16.52
2023-03-13T14:48:22.467Z,21.88
2023-03-13T14:50:50.850Z,20.23
2023-03-13T14:53:19.704Z,19.23
2023-03-13T14:55:47.700Z,18.03
2023-03-13T14:58:28.068Z,21.45
2023-03-13T15:00:56.852Z,14.88
2023-03-13T15:03:32.568Z,11.98
2023-03-13T15:06:16.550Z,13.02
2023-03-13T15:08:45.113Z,17.70
2023-03-13T15:11:26.774Z,18.92
2023-03-13T15:13:56.668Z,19.73
2023-03-13T15:16:25.190Z,12.43
2023-03-13T15:18:53.458Z,9.90
2023-03-13T15:21:22.536Z,14.53
2023-03-13T15:23:52.862Z,20.08
2023-03-13T15:26:20.379Z,19.75
2023-03-13T15:28:48.155Z,19.08
2023-03-13T15:31:17.253Z,13.13
2023-03-13T15:33:44.961Z,14.47
2023-03-13T15:36:12.975Z,22.65
2023-03-13T15:38:41.313Z,15.10
2023-03-13T15:41:10.033Z,22.65
2023-03-13T15:43:41.440Z,16.33
2023-03-13T15:46:12.123Z,13.97
2023-03-13T15:48:42.265Z,25.33
2023-03-13T15:51:11.352Z,11.88
2023-03-13T15:53:39.411Z,18.38
2023-03-13T15:56:12.282Z,24.23
2023-03-13T15:58:39.878Z,23.10
2023-03-13T16:01:07.891Z,14.25
2023-03-13T16:03:35.801Z,16.08
2023-03-13T16:06:11.693Z,16.90
2023-03-13T16:08:39.476Z,21.63
2023-03-13T16:11:07.882Z,13.80
2023-03-13T16:13:35.421Z,16.80
2023-03-13T16:16:03.231Z,21.77
2023-03-13T16:18:30.916Z,15.15
2023-03-13T16:20:59.670Z,21.38
2023-03-13T16:23:29.017Z,12.80
2023-03-13T16:25:56.623Z,23.45
2023-03-13T16:28:24.172Z,15.35
2023-03-13T16:30:51.808Z,17.00
2023-03-13T16:33:21.898Z,17.20
2023-03-13T16:35:52.123Z,16.43
2023-03-13T16:38:20.745Z,17.15
2023-03-13T16:40:49.756Z,13.25
2023-03-13T16:43:17.363Z,15.80
2023-03-13T16:45:45.221Z,18.25
2023-03-13T16:48:17.455Z,11.90
2023-03-13T16:50:46.825Z,14.93
2023-03-13T16:53:15.200Z,21.25
2023-03-13T16:55:42.695Z,13.05
2023-03-13T16:58:13.181Z,15.18
2023-03-13T17:00:40.764Z,13.20
2023-03-13T17:03:08.855Z,10.45
2023-03-13T17:05:36.724Z,10.80
2023-03-13T17:08:04.926Z,18.10
2023-03-13T17:10:33.446Z,18.25
2023-03-13T17:13:01.249Z,17.47
2023-03-13T17:15:30.479Z,15.70
2023-03-13T17:17:58.056Z,10.77
2023-03-13T17:20:27.240Z,8.40
2023-03-13T17:22:56.083Z,8.63
2023-03-13T17:25:23.809Z,13.37
2023-03-13T17:27:51.569Z,10.35
2023-03-13T17:30:21.326Z,13.10
2023-03-13T17:32:50.895Z,12.25
2023-03-13T17:35:19.347Z,11.45
2023-03-13T17:37:47.075Z,10.30
2023-03-13T17:40:16.642Z,11.95
2023-03-13T17:42:44.489Z,11.82
2023-03-13T17:45:12.594Z,18.63
2023-03-13T17:47:40.280Z,13.15
2023-03-13T17:50:16.951Z,12.17
2023-03-13T17:52:44.542Z,12.32
2023-03-13T17:55:12.676Z,13.02
2023-03-13T17:57:42.512Z,10.30
2023-03-13T18:00:18.402Z,11.40
2023-03-13T18:02:46.621Z,10.20
2023-03-13T18:05:14.149Z,13.82
2023-03-13T18:07:44.348Z,12.15
2023-03-13T18:10:29.928Z,18.98
2023-03-13T18:12:57.806Z,18.23
2023-03-13T18:15:27.644Z,13.23
2023-03-13T18:17:55.223Z,13.75
2023-03-13T18:20:24.047Z,12.70
2023-03-13T18:22:53.000Z,20.13
2023-03-13T18:25:21.521Z,11.80
2023-03-13T18:27:49.271Z,7.20
2023-03-13T18:30:18.023Z,10.98
2023-03-13T18:32:45.752Z,8.07
2023-03-13T18:35:14.398Z,13.33
2023-03-13T18:37:42.372Z,11.32
2023-03-13T18:40:18.226Z,9.02
2023-03-13T18:42:45.997Z,9.93
2023-03-13T18:45:16.842Z,10.55
2023-03-13T18:47:44.479Z,9.60
2023-03-13T18:50:18.179Z,13.77
2023-03-13T18:52:49.747Z,9.35
2023-03-13T18:55:18.762Z,9.07
2023-03-13T18:57:46.298Z,9.50
2023-03-13T19:00:17.767Z,10.53
2023-03-13T19:02:46.407Z,16.65
2023-03-13T19:05:13.932Z,14.70
2023-03-13T19:07:41.664Z,16.70
2023-03-13T19:10:18.077Z,13.65
2023-03-13T19:12:47.100Z,11.50
2023-03-13T19:15:15.672Z,14.27
2023-03-13T19:17:47.256Z,13.45
2023-03-13T19:20:15.672Z,15.90
2023-03-13T19:22:43.274Z,14.13
2023-03-13T19:25:11.377Z,12.43
2023-03-13T19:27:40.751Z,12.40
2023-03-13T19:30:17.028Z,11.65
2023-03-13T19:32:44.818Z,12.05
2023-03-13T19:35:13.338Z,16.70
2023-03-13T19:37:40.916Z,11.25
2023-03-13T19:40:09.436Z,13.88
2023-03-13T19:42:36.898Z,12.25
2023-03-13T19:45:06.186Z,19.27
2023-03-13T19:47:35.358Z,13.20
2023-03-13T19:50:03.180Z,16.05
2023-03-13T19:52:30.742Z,19.40
2023-03-13T19:55:05.117Z,15.95
2023-03-13T19:57:33.169Z,15.40
2023-03-13T20:00:00.647Z,16.60
2023-03-13T20:02:28.209Z,16.33
2023-03-13T20:04:57.371Z,9.80
2023-03-13T20:07:24.879Z,8.77
2023-03-13T20:09:52.498Z,12.38
2023-03-13T20:12:20.527Z,16.60
2023-03-13T20:14:48.087Z,10.88
2023-03-13T20:17:15.665Z,11.82
2023-03-13T20:19:43.213Z,14.45
2023-03-13T20:22:13.508Z,9.25
2023-03-13T20:24:41.410Z,12.50
2023-03-13T20:27:09.336Z,10.50
2023-03-13T20:29:36.835Z,11.88
2023-03-13T20:32:06.042Z,11.80
2023-03-13T20:34:34.516Z,10.88
2023-03-13T20:37:03.747Z,7.77
2023-03-13T20:39:32.934Z,15.85
2023-03-13T20:42:03.131Z,15.57
2023-03-13T20:44:30.945Z,11.73
2023-03-13T20:46:58.483Z,9.32
2023-03-13T20:49:26.185Z,12.20
2023-03-13T20:51:53.788Z,11.43
2023-03-13T20:54:22.136Z,11.43
2023-03-13T20:56:51.047Z,11.13
2023-03-13T20:59:18.961Z,15.13
2023-03-13T21:01:47.004Z,10.27
2023-03-13T21:04:14.769Z,11.63
2023-03-13T21:06:42.880Z,14.80
2023-03-13T21:09:11.404Z,13.25
2023-03-13T21:11:39.049Z,11.70
2023-03-13T21:14:08.730Z,7.90
2023-03-13T21:16:38.122Z,11.93
2023-03-13T21:19:05.851Z,10.98
2023-03-13T21:21:33.413Z,15.23
2023-03-13T21:24:01.255Z,10.40
2023-03-13T21:26:28.775Z,10.10
2023-03-13T21:28:56.416Z,11.50
2023-03-13T21:31:25.481Z,9.80
2023-03-13T21:33:53.212Z,11.38
2023-03-13T21:36:21.826Z,8.23
2023-03-13T21:38:49.872Z,7.78
2023-03-13T21:41:18.675Z,11.27
2023-03-13T21:43:46.605Z,12.70
2023-03-13T21:46:16.863Z,8.70
2023-03-13T21:51:20.036Z,7.13
2023-03-13T21:53:47.668Z,14.95
2023-03-13T21:56:17.272Z,10.82
2023-03-13T21:58:45.379Z,11.05
2023-03-13T22:01:13.170Z,8.97
2023-03-13T22:03:40.878Z,10.52
2023-03-13T22:06:14.610Z,14.35
2023-03-13T22:08:42.443Z,10.35
2023-03-13T22:11:10.029Z,12.50
2023-03-13T22:13:37.811Z,8.33
2023-03-13T22:16:05.686Z,8.80
2023-03-13T22:18:33.228Z,9.75
2023-03-13T22:21:04.506Z,10.98
2023-03-13T22:23:33.669Z,8.43
2023-03-13T22:26:01.319Z,9.43
2023-03-13T22:28:28.997Z,9.63
2023-03-13T22:30:56.638Z,9.57
2023-03-13T22:33:24.197Z,12.13
2023-03-13T22:35:53.238Z,8.23
2023-03-13T22:38:22.303Z,5.13
2023-03-13T22:40:57.724Z,5.85
2023-03-13T22:43:25.311Z,8.07
2023-03-13T22:45:52.958Z,5.85
2023-03-13T22:48:20.787Z,7.90
2023-03-13T22:50:48.328Z,5.90
2023-03-13T22:53:15.928Z,9.40
2023-03-13T22:55:46.172Z,7.65
2023-03-13T22:58:15.119Z,6.20
2023-03-13T23:00:42.605Z,5.05
2023-03-13T23:03:10.186Z,8.67
2023-03-13T23:05:38.452Z,10.13
2023-03-13T23:08:06.534Z,6.68
2023-03-13T23:10:34.286Z,4.93
2023-03-13T23:13:02.006Z,4.68
2023-03-13T23:15:43.085Z,6.57
2023-03-13T23:18:18.539Z,8.00
2023-03-13T23:20:46.031Z,3.20
2023-03-13T23:23:13.740Z,2.97
2023-03-13T23:25:41.463Z,1.95
2023-03-13T23:28:08.969Z,3.93
2023-03-13T23:30:37.955Z,3.08
2023-03-13T23:33:05.897Z,3.38
2023-03-13T23:35:33.467Z,1.35
2023-03-13T23:38:01.113Z,1.50
2023-03-13T23:40:29.135Z,1.30
2023-03-13T23:42:56.917Z,1.27
2023-03-13T23:45:24.606Z,2.72
2023-03-13T23:47:54.862Z,0.90
2023-03-13T23:50:22.803Z,1.40
2023-03-13T23:52:50.541Z,2.03
2023-03-13T23:55:18.377Z,2.97
2023-03-13T23:57:48.954Z,1.52
